createdAt,value
2022-11-13T00:02:01.662Z,32.00
2022-11-13T00:05:08.886Z,31.10
2022-11-13T00:08:14.871Z,31.20
2022-11-13T00:11:21.955Z,32.80
2022-11-13T00:14:27.605Z,32.10
2022-11-13T00:17:33.259Z,32.10
2022-11-13T00:20:39.522Z,30.50
2022-11-13T00:26:49.498Z,31.60
2022-11-13T00:29:55.147Z,32.20
2022-11-13T00:33:00.752Z,34.50
2022-11-13T00:36:08.500Z,32.20
2022-11-13T00:39:14.088Z,33.50
2022-11-13T00:42:19.708Z,32.50
2022-11-13T00:45:25.456Z,31.10
2022-11-13T00:48:31.126Z,31.60
2022-11-13T00:51:36.860Z,33.40
2022-11-13T00:54:42.510Z,25.30
2022-11-13T00:57:48.113Z,34.60
2022-11-13T01:00:54.099Z,31.90
2022-11-13T01:03:59.713Z,33.00
2022-11-13T01:07:05.470Z,33.60
2022-11-13T01:10:13.409Z,34.00
2022-11-13T01:13:19.250Z,33.70
2022-11-13T01:16:27.398Z,34.30
2022-11-13T01:19:32.977Z,34.60
2022-11-13T01:22:38.798Z,33.60
2022-11-13T01:25:44.455Z,34.20
2022-11-13T01:28:50.518Z,34.60
2022-11-13T01:31:56.169Z,33.50
2022-11-13T01:35:01.820Z,30.40
2022-11-13T01:38:07.471Z,32.40
2022-11-13T01:41:22.932Z,32.30
2022-11-13T01:47:34.886Z,31.20
2022-11-13T01:50:40.939Z,31.80
2022-11-13T01:53:48.567Z,30.60
2022-11-13T01:56:55.935Z,30.00
2022-11-13T02:00:05.649Z,30.20
2022-11-13T02:03:11.592Z,30.30
2022-11-13T02:06:17.588Z,30.60
2022-11-13T02:09:25.981Z,29.60
2022-11-13T02:12:36.887Z,30.20
2022-11-13T02:15:44.063Z,31.40
2022-11-13T02:18:50.021Z,31.00
2022-11-13T02:22:01.719Z,31.70
2022-11-13T02:25:09.925Z,31.50
2022-11-13T02:28:15.686Z,31.10
2022-11-13T02:31:21.324Z,30.80
2022-11-13T02:34:26.938Z,28.60
2022-11-13T02:37:32.566Z,28.20
2022-11-13T02:40:39.237Z,27.50
2022-11-13T02:43:44.867Z,27.90
2022-11-13T02:46:50.524Z,27.70
2022-11-13T02:49:56.210Z,27.70
2022-11-13T02:53:02.219Z,29.10
2022-11-13T02:56:09.365Z,40.70
2022-11-13T02:59:15.025Z,35.70
2022-11-13T03:02:20.629Z,30.50
2022-11-13T03:05:26.373Z,28.80
2022-11-13T03:08:32.945Z,30.30
2022-11-13T03:11:39.315Z,29.60
2022-11-13T03:14:44.968Z,28.10
2022-11-13T03:17:50.567Z,28.70
2022-11-13T03:20:56.162Z,28.30
2022-11-13T03:24:02.546Z,28.20
2022-11-13T03:27:08.664Z,28.70
2022-11-13T03:30:15.278Z,28.30
2022-11-13T03:33:20.880Z,29.70
2022-11-13T03:36:27.004Z,31.50
2022-11-13T03:39:32.746Z,29.20
2022-11-13T03:42:38.421Z,29.20
2022-11-13T03:45:45.278Z,28.00
2022-11-13T03:48:51.255Z,28.80
2022-11-13T03:51:56.884Z,26.50
2022-11-13T03:55:02.495Z,25.50
2022-11-13T03:58:08.597Z,26.00
2022-11-13T04:01:14.379Z,25.70
2022-11-13T04:04:20.108Z,26.70
2022-11-13T04:07:25.756Z,25.20
2022-11-13T04:10:31.859Z,25.60
2022-11-13T04:13:37.763Z,25.50
2022-11-13T04:16:43.386Z,25.00
2022-11-13T04:19:49.085Z,24.30
2022-11-13T04:22:54.836Z,24.80
2022-11-13T04:26:00.746Z,25.90
2022-11-13T04:29:06.477Z,23.90
2022-11-13T04:32:12.123Z,24.10
2022-11-13T04:35:17.850Z,21.50
2022-11-13T04:38:23.428Z,21.40
2022-11-13T04:41:50.064Z,23.50
2022-11-13T04:44:59.812Z,23.60
2022-11-13T04:48:05.547Z,22.90
2022-11-13T04:51:11.198Z,23.20
2022-11-13T04:54:17.464Z,23.40
2022-11-13T04:57:23.119Z,21.60
2022-11-13T05:00:28.770Z,21.90
2022-11-13T05:03:34.405Z,22.20
2022-11-13T05:06:40.226Z,24.00
2022-11-13T05:09:46.030Z,22.90
2022-11-13T05:12:51.623Z,21.90
2022-11-13T05:16:04.692Z,20.40
2022-11-13T05:19:10.664Z,20.20
2022-11-13T05:22:16.306Z,20.70
2022-11-13T05:25:22.172Z,21.90
2022-11-13T05:28:28.793Z,21.30
2022-11-13T05:31:34.913Z,20.30
2022-11-13T05:34:40.563Z,21.30
2022-11-13T05:37:46.125Z,20.00
2022-11-13T05:40:51.762Z,21.00
2022-11-13T05:43:59.811Z,21.70
2022-11-13T05:47:06.083Z,21.30
2022-11-13T05:50:12.917Z,20.10
2022-11-13T05:53:18.568Z,18.60
2022-11-13T05:56:27.599Z,20.40
2022-11-13T05:59:33.251Z,19.30
2022-11-13T06:02:39.108Z,20.40
2022-11-13T06:05:44.718Z,19.80
2022-11-13T06:08:51.828Z,19.20
2022-11-13T06:11:57.804Z,19.30
2022-11-13T06:15:03.406Z,19.60
2022-11-13T06:18:09.122Z,18.80
2022-11-13T06:21:17.627Z,19.00
2022-11-13T06:24:23.657Z,18.20
2022-11-13T06:27:30.078Z,18.70
2022-11-13T06:30:35.688Z,18.10
2022-11-13T06:33:42.998Z,16.90
2022-11-13T06:36:48.649Z,17.80
2022-11-13T06:39:54.234Z,17.00
2022-11-13T06:42:59.846Z,17.00
2022-11-13T06:46:08.881Z,15.10
2022-11-13T06:49:15.253Z,16.60
2022-11-13T06:55:24.957Z,16.40
2022-11-13T06:58:30.924Z,15.00
2022-11-13T07:01:36.773Z,16.40
2022-11-13T07:04:42.486Z,16.30
2022-11-13T07:07:48.104Z,17.20
2022-11-13T07:10:58.016Z,17.40
2022-11-13T07:14:03.624Z,17.60
2022-11-13T07:17:10.559Z,17.10
2022-11-13T07:20:17.197Z,16.50
2022-11-13T07:26:26.964Z,16.60
2022-11-13T07:29:32.614Z,17.30
2022-11-13T07:32:38.266Z,17.40
2022-11-13T07:35:43.920Z,17.60
2022-11-13T07:38:49.570Z,17.10
2022-11-13T07:41:55.223Z,18.80
2022-11-13T07:45:00.860Z,17.60
2022-11-13T07:48:07.672Z,17.80
2022-11-13T07:51:13.406Z,19.50
2022-11-13T07:54:19.059Z,18.70
2022-11-13T07:57:24.709Z,18.00
2022-11-13T08:00:32.006Z,19.60
2022-11-13T08:03:37.653Z,20.00
2022-11-13T08:06:43.377Z,19.10
2022-11-13T08:09:49.045Z,20.00
2022-11-13T08:13:02.794Z,13.90
2022-11-13T08:16:09.441Z,20.60
2022-11-13T08:19:15.124Z,19.80
2022-11-13T08:22:20.725Z,20.20
2022-11-13T08:25:26.738Z,21.10
2022-11-13T08:28:32.493Z,19.30
2022-11-13T08:31:38.144Z,20.20
2022-11-13T08:34:43.797Z,20.70
2022-11-13T08:37:49.755Z,18.60
2022-11-13T08:40:57.456Z,17.60
2022-11-13T08:44:03.071Z,19.70
2022-11-13T08:47:08.745Z,21.40
2022-11-13T08:50:14.795Z,18.50
2022-11-13T08:53:20.475Z,20.10
2022-11-13T08:56:26.123Z,20.60
2022-11-13T08:59:31.911Z,18.40
2022-11-13T09:02:37.528Z,18.50
2022-11-13T09:05:43.180Z,17.90
2022-11-13T09:08:48.781Z,17.80
2022-11-13T09:11:54.485Z,18.80
2022-11-13T09:15:00.140Z,13.40
2022-11-13T09:18:06.572Z,18.10
2022-11-13T09:21:12.260Z,18.80
2022-11-13T09:24:17.970Z,18.80
2022-11-13T09:27:23.807Z,18.50
2022-11-13T09:30:31.265Z,18.90
2022-11-13T09:33:37.016Z,18.70
2022-11-13T09:36:42.672Z,18.10
2022-11-13T09:39:48.422Z,18.70
2022-11-13T09:42:54.377Z,19.00
2022-11-13T09:46:06.864Z,20.20
2022-11-13T09:49:18.990Z,17.90
2022-11-13T09:52:35.593Z,20.00
2022-11-13T09:55:53.954Z,19.70
2022-11-13T09:59:08.314Z,19.60
2022-11-13T10:02:23.178Z,18.80
2022-11-13T10:05:36.077Z,18.40
2022-11-13T10:08:52.709Z,19.50
2022-11-13T10:12:03.081Z,20.20
2022-11-13T10:15:12.692Z,20.00
2022-11-13T10:18:21.895Z,20.80
2022-11-13T10:21:34.756Z,20.60
2022-11-13T10:24:44.205Z,20.30
2022-11-13T10:27:54.700Z,20.50
2022-11-13T10:31:00.646Z,21.40
2022-11-13T10:34:06.949Z,20.80
2022-11-13T10:40:31.016Z,21.00
2022-11-13T10:43:36.968Z,20.00
2022-11-13T10:46:42.727Z,20.80
2022-11-13T10:49:48.583Z,20.40
2022-11-13T10:52:56.575Z,20.80
2022-11-13T10:56:02.542Z,21.40
2022-11-13T10:59:13.976Z,21.10
2022-11-13T11:02:22.807Z,21.10
2022-11-13T11:05:30.038Z,19.70
2022-11-13T11:08:36.618Z,20.40
2022-11-13T11:12:00.568Z,19.40
2022-11-13T11:15:19.458Z,20.40
2022-11-13T11:18:30.592Z,20.90
2022-11-13T11:21:38.626Z,20.90
2022-11-13T11:24:51.150Z,21.10
2022-11-13T11:28:01.991Z,21.00
2022-11-13T11:31:26.974Z,21.30
2022-11-13T11:34:36.685Z,21.50
2022-11-13T11:37:48.279Z,21.00
2022-11-13T11:40:58.212Z,22.60
2022-11-13T11:44:12.278Z,21.90
2022-11-13T11:47:19.435Z,20.80
2022-11-13T11:50:36.441Z,21.40
2022-11-13T11:53:51.527Z,22.30
2022-11-13T11:57:06.118Z,21.80
2022-11-13T12:00:16.026Z,22.90
2022-11-13T12:03:52.512Z,24.00
2022-11-13T12:07:15.473Z,24.30
2022-11-13T12:10:33.135Z,25.20
2022-11-13T12:13:51.580Z,25.80
2022-11-13T12:17:19.765Z,24.90
2022-11-13T12:20:34.835Z,24.60
2022-11-13T12:23:54.204Z,24.40
2022-11-13T12:27:14.711Z,24.90
2022-11-13T12:30:23.369Z,24.10
2022-11-13T12:33:41.712Z,25.60
2022-11-13T12:36:48.648Z,25.10
2022-11-13T12:39:58.289Z,27.70
2022-11-13T12:43:24.339Z,26.50
2022-11-13T12:46:39.910Z,27.00
2022-11-13T12:49:45.576Z,26.80
2022-11-13T12:53:03.410Z,25.20
2022-11-13T12:56:15.516Z,25.40
2022-11-13T12:59:35.896Z,27.80
2022-11-13T13:02:52.233Z,27.10
2022-11-13T13:06:15.276Z,27.60
2022-11-13T13:09:34.960Z,25.60
2022-11-13T13:12:49.892Z,24.80
2022-11-13T13:15:59.784Z,24.30
2022-11-13T13:19:28.494Z,24.90
2022-11-13T13:22:35.545Z,25.00
2022-11-13T13:25:42.334Z,24.90
2022-11-13T13:28:51.353Z,24.70
2022-11-13T13:32:12.194Z,25.00
2022-11-13T13:35:24.973Z,26.90
2022-11-13T13:38:38.323Z,25.90
2022-11-13T13:41:58.391Z,33.40
2022-11-13T13:45:25.532Z,28.40
2022-11-13T13:48:33.332Z,30.60
2022-11-13T13:51:43.921Z,32.90
2022-11-13T13:54:50.605Z,30.40
2022-11-13T13:58:00.323Z,30.80
2022-11-13T14:01:19.474Z,28.80
2022-11-13T14:04:27.117Z,30.40
2022-11-13T14:07:35.860Z,30.20
2022-11-13T14:10:41.608Z,28.20
2022-11-13T14:13:47.231Z,29.80
2022-11-13T14:16:54.807Z,29.70
2022-11-13T14:20:01.241Z,28.90
2022-11-13T14:23:07.576Z,27.40
2022-11-13T14:26:14.161Z,29.50
2022-11-13T14:29:32.102Z,28.90
2022-11-13T14:32:46.934Z,29.10
2022-11-13T14:35:57.530Z,29.00
2022-11-13T14:39:04.316Z,29.60
2022-11-13T14:42:17.539Z,27.70
2022-11-13T14:45:25.723Z,28.70
2022-11-13T14:48:32.939Z,30.20
2022-11-13T14:51:38.696Z,29.70
2022-11-13T14:55:13.494Z,30.40
2022-11-13T14:58:15.293Z,29.10
2022-11-13T15:01:23.092Z,30.20
2022-11-13T15:04:28.748Z,30.80
2022-11-13T15:07:39.010Z,30.60
2022-11-13T15:10:45.100Z,30.40
2022-11-13T15:13:50.826Z,31.10
2022-11-13T15:16:57.304Z,31.40
2022-11-13T15:20:08.404Z,31.30
2022-11-13T15:23:17.430Z,31.50
2022-11-13T15:26:24.478Z,31.70
2022-11-13T15:29:30.082Z,32.30
2022-11-13T15:32:36.286Z,34.10
2022-11-13T15:38:46.997Z,34.40
2022-11-13T15:41:52.940Z,33.70
2022-11-13T15:44:59.015Z,32.90
2022-11-13T15:48:05.286Z,32.40
2022-11-13T15:54:26.618Z,33.10
2022-11-13T15:57:32.725Z,32.10
2022-11-13T16:00:42.736Z,32.50
2022-11-13T16:03:48.614Z,33.10
2022-11-13T16:06:54.979Z,33.10
2022-11-13T16:10:00.761Z,33.30
2022-11-13T16:13:06.470Z,33.00
2022-11-13T16:16:18.157Z,33.50
2022-11-13T16:19:25.721Z,34.10
2022-11-13T16:22:31.826Z,35.90
2022-11-13T16:25:37.723Z,32.40
2022-11-13T16:32:14.804Z,31.80
2022-11-13T16:35:21.648Z,31.50
2022-11-13T16:38:27.420Z,29.80
2022-11-13T16:41:33.665Z,27.80
2022-11-13T16:47:43.733Z,26.10
2022-11-13T16:50:49.478Z,27.90
2022-11-13T16:53:55.122Z,27.70
2022-11-13T16:57:00.820Z,27.60
2022-11-13T17:00:12.121Z,26.80
2022-11-13T17:03:17.738Z,27.00
2022-11-13T17:06:29.138Z,27.30
2022-11-13T17:09:34.791Z,29.30
2022-11-13T17:12:40.429Z,27.60
2022-11-13T17:15:46.081Z,28.10
2022-11-13T17:18:53.380Z,27.80
2022-11-13T17:21:59.123Z,27.80
2022-11-13T17:25:05.200Z,26.80
2022-11-13T17:28:10.852Z,27.40
2022-11-13T17:31:16.673Z,26.30
2022-11-13T17:34:22.362Z,28.10
2022-11-13T17:37:28.115Z,27.70
2022-11-13T17:40:33.721Z,34.30
2022-11-13T17:43:40.334Z,28.70
2022-11-13T17:46:45.962Z,29.40
2022-11-13T17:49:51.875Z,29.80
2022-11-13T17:52:57.728Z,28.40
2022-11-13T17:56:07.366Z,27.20
2022-11-13T17:59:13.104Z,28.20
2022-11-13T18:02:18.756Z,27.50
2022-11-13T18:05:24.510Z,29.40
2022-11-13T18:08:30.162Z,23.00
2022-11-13T18:11:35.774Z,27.20
2022-11-13T18:14:41.465Z,27.50
2022-11-13T18:17:47.118Z,23.70
2022-11-13T18:20:53.179Z,27.10
2022-11-13T18:24:05.820Z,25.80
2022-11-13T18:27:11.857Z,26.70
2022-11-13T18:30:18.205Z,25.00
2022-11-13T18:33:23.875Z,25.60
2022-11-13T18:36:29.526Z,29.90
2022-11-13T18:39:35.181Z,27.50
2022-11-13T18:42:40.935Z,27.50
2022-11-13T18:45:56.296Z,25.00
2022-11-13T18:49:02.170Z,24.90
2022-11-13T18:52:08.430Z,24.00
2022-11-13T18:55:14.090Z,23.00
2022-11-13T18:58:19.944Z,23.50
2022-11-13T19:01:28.482Z,22.60
2022-11-13T19:04:35.563Z,22.90
2022-11-13T19:07:41.183Z,23.60
2022-11-13T19:10:47.159Z,23.50
2022-11-13T19:13:53.541Z,21.70
2022-11-13T19:16:59.180Z,22.90
2022-11-13T19:20:05.338Z,23.20
2022-11-13T19:23:10.981Z,23.30
2022-11-13T19:26:16.941Z,24.20
2022-11-13T19:29:22.606Z,23.70
2022-11-13T19:32:28.461Z,23.10
2022-11-13T19:35:34.625Z,21.00
2022-11-13T19:38:42.098Z,22.10
2022-11-13T19:41:48.027Z,19.70
2022-11-13T19:44:53.731Z,19.20
2022-11-13T19:47:59.461Z,19.80
2022-11-13T19:51:10.775Z,21.20
2022-11-13T19:54:17.682Z,19.30
2022-11-13T19:57:23.505Z,20.60
2022-11-13T20:00:29.260Z,20.40
2022-11-13T20:03:34.829Z,21.80
2022-11-13T20:06:40.886Z,22.30
2022-11-13T20:09:46.517Z,22.20
2022-11-13T20:12:52.174Z,21.90
2022-11-13T20:15:57.990Z,22.40
2022-11-13T20:19:03.684Z,22.60
2022-11-13T20:22:09.337Z,22.00
2022-11-13T20:25:15.192Z,20.30
2022-11-13T20:28:20.845Z,21.00
2022-11-13T20:31:27.871Z,21.20
2022-11-13T20:34:33.682Z,20.90
2022-11-13T20:37:39.338Z,19.60
2022-11-13T20:40:44.987Z,19.50
2022-11-13T20:43:51.056Z,19.70
2022-11-13T20:46:58.850Z,19.60
2022-11-13T20:50:04.604Z,19.00
2022-11-13T20:53:10.420Z,18.90
2022-11-13T20:56:17.341Z,19.60
2022-11-13T20:59:22.994Z,18.90
2022-11-13T21:02:28.749Z,19.20
2022-11-13T21:05:34.423Z,20.50
2022-11-13T21:08:40.469Z,22.10
2022-11-13T21:11:46.073Z,20.60
2022-11-13T21:14:52.340Z,21.10
2022-11-13T21:21:09.292Z,21.20
2022-11-13T21:24:14.967Z,20.10
2022-11-13T21:27:20.618Z,20.80
2022-11-13T21:30:26.373Z,19.80
2022-11-13T21:33:32.010Z,20.30
2022-11-13T21:36:37.678Z,21.10
2022-11-13T21:39:43.328Z,21.20
2022-11-13T21:42:49.288Z,20.50
2022-11-13T21:45:54.940Z,21.70
2022-11-13T21:49:02.515Z,22.10
2022-11-13T21:52:08.395Z,20.90
2022-11-13T21:55:14.162Z,20.70
2022-11-13T21:58:19.800Z,21.20
2022-11-13T22:01:26.159Z,20.10
2022-11-13T22:04:31.822Z,20.40
2022-11-13T22:07:37.573Z,19.60
2022-11-13T22:10:43.432Z,19.10
2022-11-13T22:13:49.121Z,19.50
2022-11-13T22:16:54.837Z,20.80
2022-11-13T22:20:00.517Z,20.80
2022-11-13T22:23:08.773Z,20.20
2022-11-13T22:26:17.321Z,20.50
2022-11-13T22:29:26.008Z,21.20
2022-11-13T22:32:31.706Z,20.30
2022-11-13T22:35:37.450Z,19.70
2022-11-13T22:38:44.515Z,20.30
2022-11-13T22:41:50.103Z,19.20
2022-11-13T22:44:56.733Z,20.20
2022-11-13T22:48:02.511Z,19.40
2022-11-13T22:51:11.541Z,18.40
2022-11-13T22:54:17.198Z,18.30
2022-11-13T22:57:22.769Z,17.90
2022-11-13T23:00:28.398Z,18.30
2022-11-13T23:03:37.161Z,17.60
2022-11-13T23:06:43.344Z,16.30
2022-11-13T23:09:49.041Z,17.60
2022-11-13T23:12:55.122Z,16.60
2022-11-13T23:16:00.757Z,16.40
2022-11-13T23:19:07.142Z,15.60
2022-11-13T23:22:12.750Z,15.80
2022-11-13T23:25:18.632Z,15.30
2022-11-13T23:28:24.647Z,15.90
2022-11-13T23:31:30.259Z,15.50
2022-11-13T23:34:58.317Z,14.60
2022-11-13T23:38:01.718Z,15.30
2022-11-13T23:41:08.184Z,15.30
2022-11-13T23:44:13.769Z,14.60
2022-11-13T23:47:19.800Z,14.90
2022-11-13T23:50:25.554Z,16.20
2022-11-13T23:53:31.207Z,15.00
2022-11-13T23:56:36.857Z,14.90
2022-11-13T23:59:42.510Z,14.70
